Airport View

Enter AWOS ICAO identifier for current METAR.

ex. KFNL

KPWT 210056Z AUTO 00000KT 10SM OVC055 18/12 A3012 RMK AO2 SLP217 T01830122

21 Sep 2019 01:09

Frequency: 121.2

Phone: 360-674-2811

Other Area AWOS: KTIW - KSEA - KBFI - KSHN

TAF KPWT 202335Z 2100/2124 20004KT P6SM SCT025 BKN040 FM210900 VRB03KT P6SM OVC004 FM211700 VRB03KT P6SM OVC008 FM211900 VRB03KT P6SM SCT040 BKN200